Terminal Aerodrome Forecast
Issued by NWS

Home | Current Version | Previous Version | Text Only | Print | Product List | Glossary On
Versions: 1 2 3 4 5 6 7 8 9 10 11 12 13 14 15 16 17 18
000
FTUS43 KDVN 192300
TAFCID
TAF
KCID 192320Z 2000/2024 30010KT P6SM FEW045
     FM200100 29003KT P6SM SKC
     FM200800 VRB02KT 5SM BR SKC
      TEMPO 2009/2013 2SM BR
     FM201500 22008KT P6SM SCT050=

USA.gov is the U.S. government's official web portal to all federal, state and local government web resources and services.